Terminal Aerodrome Forecast
Issued by NWS

Home | Current Version | Previous Version | Text Only | Print | Product List | Glossary On
Versions: 1 2 3 4 5 6 7 8 9 10 11 12 13 14
000
FTUS42 TJSJ 251800 AAA
TAFIST
TAF AMD
TIST 251800Z 2518/2618 15010KT P6SM SCT025
      TEMPO 2518/2519 6SM -SHRA BKN050
     FM252300 10008KT P6SM FEW025
     FM261300 14012KT P6SM SCT025=

USA.gov is the U.S. government's official web portal to all federal, state and local government web resources and services.